South Woodford, United Kingdom
Current Conditions -  °F | °C
As of 10:20 AM on Thursday 29 Jan 2015 (Local Time) from EGLC Reporting Station
Few Clouds Few Clouds  
Wind Chill: 33°   Ceiling: Unl
Heat Index: 41°   Visibility: 6mi
Dew Point: 32°   Wind: 16mph
Humidity: 70%   Direction: 250°WSW
Pressure: 29.12"   Gusts: 29mph
Location:  51.59°N, 0.03°E
Report Text: EGLC 291020Z 25014G25KT 9999 FEW019 05/00 Q0986
Loading
Personal Weather Stations






























Interactive Weather Map New forecast layout! Learn more

10-Day Weather Forecast

Advertisements
Track Severe Weather on mobile